createdAt,value
2023-05-06T00:00:38.184Z,100755.97
2023-05-06T00:04:42.582Z,100746.06
2023-05-06T00:08:46.168Z,100750.91
2023-05-06T00:12:49.356Z,100748.59
2023-05-06T00:16:52.286Z,100754.28
2023-05-06T00:20:56.980Z,100745.66
2023-05-06T00:24:59.920Z,100744.81
2023-05-06T00:29:02.822Z,100741.59
2023-05-06T00:33:05.808Z,100740.53
2023-05-06T00:37:11.165Z,100744.16
2023-05-06T00:41:14.033Z,100746.25
2023-05-06T00:45:16.920Z,100744.94
2023-05-06T00:49:20.473Z,100748.28
2023-05-06T00:53:24.961Z,100737.47
2023-05-06T00:57:28.203Z,100737.69
2023-05-06T01:01:31.950Z,100735.00
2023-05-06T01:05:39.712Z,100731.59
2023-05-06T01:09:48.601Z,100720.75
2023-05-06T01:13:53.707Z,100731.25
2023-05-06T01:17:59.877Z,100730.88
2023-05-06T01:22:03.563Z,100731.69
2023-05-06T01:26:08.074Z,100728.72
2023-05-06T01:30:11.445Z,100732.09
2023-05-06T01:34:17.331Z,100736.72
2023-05-06T01:38:25.633Z,100732.56
2023-05-06T01:42:31.315Z,100738.75
2023-05-06T01:46:34.522Z,100728.56
2023-05-06T01:50:37.826Z,100729.84
2023-05-06T01:54:40.764Z,100740.44
2023-05-06T01:58:45.570Z,100731.19
2023-05-06T02:02:48.539Z,100729.44
2023-05-06T02:06:51.477Z,100729.59
2023-05-06T02:10:56.336Z,100727.03
2023-05-06T02:15:00.573Z,100737.81
2023-05-06T02:19:03.810Z,100727.66
2023-05-06T02:23:06.784Z,100732.75
2023-05-06T02:27:09.641Z,100730.19
2023-05-06T02:31:15.922Z,100724.56
2023-05-06T02:35:18.859Z,100729.53
2023-05-06T02:39:21.719Z,100725.09
2023-05-06T02:43:33.590Z,100721.38
2023-05-06T02:47:54.918Z,100716.50
2023-05-06T02:51:58.188Z,100723.13
2023-05-06T02:56:01.145Z,100707.63
2023-05-06T03:00:06.907Z,100684.41
2023-05-06T03:04:09.999Z,100691.00
2023-05-06T03:08:13.067Z,100691.00
2023-05-06T03:12:16.941Z,100680.19
2023-05-06T03:16:21.623Z,100682.63
2023-05-06T03:20:28.961Z,100678.78
2023-05-06T03:24:33.690Z,100673.00
2023-05-06T03:28:39.384Z,100678.19
2023-05-06T03:32:44.592Z,100674.88
2023-05-06T03:36:51.429Z,100674.53
2023-05-06T03:40:55.052Z,100671.06
2023-05-06T03:44:58.521Z,100669.06
2023-05-06T03:49:04.405Z,100668.66
2023-05-06T03:53:07.405Z,100678.69
2023-05-06T03:57:12.760Z,100666.97
2023-05-06T04:01:17.358Z,100674.53
2023-05-06T04:05:22.229Z,100672.03
2023-05-06T04:09:25.393Z,100675.31
2023-05-06T04:13:29.443Z,100678.31
2023-05-06T04:17:35.020Z,100679.84
2023-05-06T04:21:39.805Z,100685.00
2023-05-06T04:25:49.444Z,100681.19
2023-05-06T04:29:54.336Z,100691.69
2023-05-06T04:33:57.638Z,100701.69
2023-05-06T04:38:03.918Z,100701.22
2023-05-06T04:42:07.971Z,100701.94
2023-05-06T04:46:21.224Z,100703.16
2023-05-06T04:50:24.464Z,100710.34
2023-05-06T04:54:30.284Z,100704.00
2023-05-06T04:58:33.684Z,100710.38
2023-05-06T05:02:37.357Z,100720.28
2023-05-06T05:06:41.468Z,100726.06
2023-05-06T05:10:45.972Z,100727.03
2023-05-06T05:14:53.510Z,100730.44
2023-05-06T05:18:56.561Z,100733.84
2023-05-06T05:23:03.460Z,100722.97
2023-05-06T05:27:08.629Z,100733.75
2023-05-06T05:31:12.348Z,100737.56
2023-05-06T05:35:16.252Z,100746.66
2023-05-06T05:39:20.769Z,100748.78
2023-05-06T05:43:27.129Z,100751.75
2023-05-06T05:47:31.446Z,100750.09
2023-05-06T05:51:34.882Z,100739.72
2023-05-06T05:55:40.855Z,100754.91
2023-05-06T05:59:45.456Z,100750.03
2023-05-06T06:03:48.623Z,100747.06
2023-05-06T06:07:51.802Z,100750.41
2023-05-06T06:11:55.272Z,100749.94
2023-05-06T06:15:59.827Z,100742.94
2023-05-06T06:20:04.639Z,100739.72
2023-05-06T06:24:07.677Z,100730.97
2023-05-06T06:28:10.685Z,100734.28
2023-05-06T06:32:16.284Z,100734.81
2023-05-06T06:36:19.179Z,100732.19
2023-05-06T06:40:22.686Z,100736.22
2023-05-06T06:44:25.834Z,100726.03
2023-05-06T06:48:30.013Z,100732.19
2023-05-06T06:52:32.848Z,100724.13
2023-05-06T06:56:35.668Z,100720.09
2023-05-06T07:00:38.560Z,100719.66
2023-05-06T07:04:42.895Z,100717.91
2023-05-06T07:08:45.803Z,100722.78
2023-05-06T07:12:48.861Z,100708.03
2023-05-06T07:16:51.849Z,100707.91
2023-05-06T07:20:56.076Z,100686.34
2023-05-06T07:24:59.243Z,100673.69
2023-05-06T07:29:02.251Z,100669.78
2023-05-06T07:33:05.314Z,100663.06
2023-05-06T07:37:09.580Z,100661.75
2023-05-06T07:41:12.527Z,100658.41
2023-05-06T07:45:15.877Z,100659.75
2023-05-06T07:49:18.811Z,100661.00
2023-05-06T07:53:23.178Z,100648.16
2023-05-06T07:57:26.199Z,100660.00
2023-05-06T08:01:30.100Z,100659.69
2023-05-06T08:05:33.342Z,100658.56
2023-05-06T08:09:37.631Z,100661.78
2023-05-06T08:13:40.846Z,100663.97
2023-05-06T08:17:43.847Z,100659.72
2023-05-06T08:21:46.837Z,100665.22
2023-05-06T08:25:51.237Z,100667.94
2023-05-06T08:29:54.151Z,100665.38
2023-05-06T08:33:57.125Z,100657.97
2023-05-06T08:38:00.036Z,100661.19
2023-05-06T08:42:04.490Z,100657.44
2023-05-06T08:46:07.507Z,100650.69
2023-05-06T08:50:11.181Z,100653.84
2023-05-06T08:54:15.029Z,100654.63
2023-05-06T08:58:19.848Z,100671.16
2023-05-06T09:02:23.147Z,100653.78
2023-05-06T09:06:27.200Z,100664.66
2023-05-06T09:10:32.906Z,100663.59
2023-05-06T09:14:37.402Z,100667.19
2023-05-06T09:18:40.255Z,100647.91
2023-05-06T09:22:43.508Z,100646.78
2023-05-06T09:26:47.699Z,100653.28
2023-05-06T09:30:52.640Z,100660.34
2023-05-06T09:34:55.941Z,100647.38
2023-05-06T09:38:58.796Z,100663.31
2023-05-06T09:43:02.103Z,100657.06
2023-05-06T09:47:06.837Z,100655.41
2023-05-06T09:51:09.868Z,100651.03
2023-05-06T09:55:13.030Z,100659.72
2023-05-06T09:59:18.306Z,100652.66
2023-05-06T10:03:23.257Z,100659.94
2023-05-06T10:07:28.856Z,100662.75
2023-05-06T10:11:32.545Z,100655.53
2023-05-06T10:15:35.753Z,100648.41
2023-05-06T10:19:41.778Z,100656.09
2023-05-06T10:23:45.472Z,100645.00
2023-05-06T10:27:48.528Z,100647.47
2023-05-06T10:31:55.431Z,100652.16
2023-05-06T10:36:10.927Z,100637.94
2023-05-06T10:40:14.452Z,100641.22
2023-05-06T10:44:17.396Z,100638.31
2023-05-06T10:48:20.242Z,100629.59
2023-05-06T10:52:24.515Z,100625.41
2023-05-06T10:56:27.474Z,100624.47
2023-05-06T11:00:33.876Z,100620.53
2023-05-06T11:04:37.679Z,100619.38
2023-05-06T11:08:42.020Z,100611.94
2023-05-06T11:12:45.963Z,100624.91
2023-05-06T11:16:49.499Z,100609.31
2023-05-06T11:20:52.495Z,100615.50
2023-05-06T11:24:57.415Z,100608.66
2023-05-06T11:29:01.787Z,100621.25
2023-05-06T11:33:05.869Z,100612.78
2023-05-06T11:37:09.641Z,100607.13
2023-05-06T11:41:13.978Z,100594.22
2023-05-06T11:45:16.971Z,100618.81
2023-05-06T11:49:19.937Z,100605.13
2023-05-06T11:53:23.850Z,100600.69
2023-05-06T11:57:28.107Z,100594.28
2023-05-06T12:01:30.974Z,100598.44
2023-05-06T12:05:34.055Z,100588.53
2023-05-06T12:09:37.282Z,100589.81
2023-05-06T12:13:41.787Z,100599.97
2023-05-06T12:17:44.775Z,100593.75
2023-05-06T12:21:47.684Z,100594.84
2023-05-06T12:26:01.112Z,100580.13
2023-05-06T12:30:09.024Z,100571.91
2023-05-06T12:34:12.482Z,100570.56
2023-05-06T12:38:16.141Z,100569.06
2023-05-06T12:42:20.884Z,100565.50
2023-05-06T12:46:25.291Z,100572.72
2023-05-06T12:50:38.250Z,100571.91
2023-05-06T12:54:41.116Z,100579.53
2023-05-06T12:58:43.985Z,100577.88
2023-05-06T13:02:48.632Z,100583.69
2023-05-06T13:06:51.882Z,100574.31
2023-05-06T13:10:54.912Z,100578.41
2023-05-06T13:14:57.794Z,100573.47
2023-05-06T13:19:02.134Z,100572.69
2023-05-06T13:23:05.223Z,100563.28
2023-05-06T13:27:08.085Z,100568.13
2023-05-06T13:31:11.153Z,100562.56
2023-05-06T13:35:15.414Z,100566.47
2023-05-06T13:39:18.257Z,100560.88
2023-05-06T13:43:21.518Z,100557.81
2023-05-06T13:47:25.292Z,100558.91
2023-05-06T13:51:35.180Z,100558.16
2023-05-06T13:55:38.334Z,100569.75
2023-05-06T13:59:41.263Z,100562.63
2023-05-06T14:03:44.566Z,100637.53
2023-05-06T14:07:48.767Z,100682.75
2023-05-06T14:11:51.611Z,100714.03
2023-05-06T14:15:55.958Z,100734.91
2023-05-06T14:19:58.839Z,100734.91
2023-05-06T14:24:04.296Z,100726.38
2023-05-06T14:28:09.533Z,100726.97
2023-05-06T14:32:12.482Z,100713.91
2023-05-06T14:36:19.027Z,100701.69
2023-05-06T14:40:23.352Z,100697.63
2023-05-06T14:44:26.261Z,100690.66
2023-05-06T14:48:29.122Z,100676.91
2023-05-06T14:52:31.935Z,100659.63
2023-05-06T14:56:36.008Z,100658.78
2023-05-06T15:00:40.363Z,100659.34
2023-05-06T15:04:43.278Z,100663.41
2023-05-06T15:08:46.359Z,100654.03
2023-05-06T15:12:49.286Z,100655.13
2023-05-06T15:16:54.095Z,100644.66
2023-05-06T15:20:58.746Z,100643.47
2023-05-06T15:25:03.243Z,100655.44
2023-05-06T15:29:06.628Z,100667.22
2023-05-06T15:33:10.871Z,100662.88
2023-05-06T15:37:15.946Z,100668.88
2023-05-06T15:41:18.953Z,100657.97
2023-05-06T15:45:21.922Z,100647.03
2023-05-06T15:49:51.133Z,100644.28
2023-05-06T15:53:49.019Z,100654.94
2023-05-06T15:57:53.778Z,100647.63
2023-05-06T16:06:03.787Z,100636.94
2023-05-06T16:10:07.339Z,100632.81
2023-05-06T16:14:10.267Z,100620.41
2023-05-06T16:18:13.448Z,100622.84
2023-05-06T16:22:17.710Z,100621.09
2023-05-06T16:26:20.627Z,100622.63
2023-05-06T16:30:24.157Z,100609.88
2023-05-06T16:34:27.539Z,100612.50
2023-05-06T16:38:31.784Z,100605.03
2023-05-06T16:42:34.771Z,100598.50
2023-05-06T16:46:37.751Z,100609.38
2023-05-06T16:50:40.819Z,100617.25
2023-05-06T16:54:45.268Z,100619.34
2023-05-06T16:58:48.137Z,100627.16
2023-05-06T17:02:51.297Z,100629.00
2023-05-06T17:06:55.094Z,100632.75
2023-05-06T17:10:59.388Z,100635.59
2023-05-06T17:15:02.750Z,100640.28
2023-05-06T17:19:05.957Z,100647.91
2023-05-06T17:23:08.918Z,100652.25
2023-05-06T17:27:13.147Z,100654.25
2023-05-06T17:31:16.465Z,100662.34
2023-05-06T17:35:20.315Z,100666.97
2023-05-06T17:39:23.246Z,100666.69
2023-05-06T17:43:27.431Z,100672.72
2023-05-06T17:47:30.822Z,100686.03
2023-05-06T17:51:33.824Z,100677.50
2023-05-06T17:55:36.740Z,100671.28
2023-05-06T17:59:41.144Z,100671.34
2023-05-06T18:03:45.101Z,100662.63
2023-05-06T18:07:48.100Z,100650.19
2023-05-06T18:11:51.217Z,100630.88
2023-05-06T18:15:55.859Z,100622.00
2023-05-06T18:19:59.066Z,100625.88
2023-05-06T18:24:15.398Z,100630.22
2023-05-06T18:28:19.291Z,100634.97
2023-05-06T18:32:23.560Z,100636.22
2023-05-06T18:36:27.032Z,100640.41
2023-05-06T18:40:29.922Z,100638.97
2023-05-06T18:44:32.827Z,100644.00
2023-05-06T18:48:37.161Z,100649.78
2023-05-06T18:52:40.148Z,100656.06
2023-05-06T18:56:43.654Z,100653.88
2023-05-06T19:00:46.946Z,100664.16
2023-05-06T19:04:51.223Z,100665.97
2023-05-06T19:08:54.658Z,100663.00
2023-05-06T19:12:57.613Z,100662.59
2023-05-06T19:17:00.633Z,100660.34
2023-05-06T19:21:05.031Z,100655.44
2023-05-06T19:25:08.652Z,100648.59
2023-05-06T19:29:11.781Z,100651.34
2023-05-06T19:33:14.652Z,100656.63
2023-05-06T19:37:18.969Z,100663.34
2023-05-06T19:41:21.832Z,100666.56
2023-05-06T19:45:24.978Z,100665.16
2023-05-06T19:49:27.862Z,100661.88
2023-05-06T19:53:32.198Z,100670.16
2023-05-06T19:57:35.256Z,100671.84
2023-05-06T20:01:38.138Z,100671.84
2023-05-06T20:05:42.326Z,100663.78
2023-05-06T20:09:46.558Z,100668.69
2023-05-06T20:13:49.397Z,100664.53
2023-05-06T20:17:52.439Z,100666.06
2023-05-06T20:21:56.674Z,100664.63
2023-05-06T20:26:01.062Z,100659.97
2023-05-06T20:30:04.262Z,100656.94
2023-05-06T20:34:08.134Z,100660.31
2023-05-06T20:38:11.240Z,100667.03
2023-05-06T20:42:15.459Z,100663.91
2023-05-06T20:46:18.639Z,100664.63
2023-05-06T20:50:21.605Z,100667.84
2023-05-06T20:54:24.585Z,100669.72
2023-05-06T20:58:29.635Z,100668.28
2023-05-06T21:02:35.820Z,100666.97
2023-05-06T21:06:42.834Z,100665.34
2023-05-06T21:10:46.043Z,100664.00
2023-05-06T21:14:50.249Z,100652.59
2023-05-06T21:18:53.084Z,100664.09
2023-05-06T21:22:56.031Z,100658.81
2023-05-06T21:26:58.933Z,100671.22
2023-05-06T21:31:03.408Z,100658.75
2023-05-06T21:35:07.082Z,100666.53
2023-05-06T21:39:12.201Z,100668.47
2023-05-06T21:43:17.847Z,100661.16
2023-05-06T21:47:22.111Z,100667.34
2023-05-06T21:51:27.341Z,100664.22
2023-05-06T21:55:30.348Z,100671.41
2023-05-06T21:59:33.195Z,100678.59
2023-05-06T22:03:37.612Z,100677.81
2023-05-06T22:07:40.553Z,100674.84
2023-05-06T22:11:43.426Z,100674.91
2023-05-06T22:15:46.342Z,100677.38
2023-05-06T22:19:51.631Z,100669.72
2023-05-06T22:23:55.003Z,100676.44
2023-05-06T22:27:57.876Z,100675.13
2023-05-06T22:32:00.839Z,100675.53
2023-05-06T22:36:05.465Z,100673.50
2023-05-06T22:40:09.331Z,100671.56
2023-05-06T22:44:13.774Z,100676.72
2023-05-06T22:48:16.688Z,100659.47
2023-05-06T22:52:21.025Z,100655.72
2023-05-06T22:56:23.887Z,100655.72
2023-05-06T23:00:26.735Z,100667.59
2023-05-06T23:04:29.920Z,100652.28
2023-05-06T23:08:34.122Z,100662.81
2023-05-06T23:12:37.389Z,100670.38
2023-05-06T23:16:40.292Z,100670.16
2023-05-06T23:20:43.328Z,100663.56
2023-05-06T23:24:47.682Z,100671.22
2023-05-06T23:28:50.509Z,100664.50
2023-05-06T23:32:53.459Z,100656.00
2023-05-06T23:36:56.622Z,100654.44
2023-05-06T23:41:00.890Z,100661.22
2023-05-06T23:45:03.778Z,100663.38
2023-05-06T23:49:08.066Z,100649.84
2023-05-06T23:53:11.229Z,100653.69
2023-05-06T23:57:15.559Z,100647.31
